Oxford, KS

3:55 AM CDT on July 29, 2016 (GMT -0500)
DeLaughter's House | | Change Station

Elev 1194 ft 37.28 °N, 97.18 °W | Updated 5 seconds ago

Clear
Clear
69.6 °F
Feels Like 69.6 °F
N
1.8
Wind Variable Wind from North
Gusts 2.5 mph

Today
High -- | Low -- °F
--% Chance of Precip.
Yesterday
High -- | Low -- °F
Precip. -- in
Pressure 29.92 in
Visibility 10.0 miles
Clouds Clear
Dew Point 65 °F
Humidity 86%
Rainfall 0.00 in
Snow Depth Not available.
6:31 AM 8:38 PM
Waning Crescent, 24% visible
METAR KWLD 290754Z AUTO 05006KT 10SM CLR 21/18 A2996 RMK AO2 SLP132 T02110178 $
Pressure 29.92 in
Visibility 10.0 miles
Clouds Clear
Dew Point 65 °F
Humidity 86%
Rainfall 0.00 in
Snow Depth Not available.
6:31 AM 8:38 PM
Waning Crescent, 24% visible
METAR KWLD 290754Z AUTO 05006KT 10SM CLR 21/18 A2996 RMK AO2 SLP132 T02110178 $

10-Day Weather Forecast

Almanac

Astronomy

Jul. 29, 2016 Rise Set
Actual Time
Civil Twilight
Nautical Twilight
Astronomical Twilight
Moon
Length of Visible Light
Length of Day
Tomorrow will be .
, % of the Moon is Illuminated

Today's Extremes

State Highs State Lows

Community

WunderPhotos

Upload Photos

1,928,300 photos uploaded!

WunderBlog® & News

Nearby

Air Quality

  Air Quality AQ Index Pollutant
Not available.

Snow Depth

Station Depth Elevation

Earthquake Activity

City Distance Mag. Time & Date
Minimum magnitude displayed is 2.5.

Coastal Water Temperatures

Place Temperature

Stations

Nearby Weather Stations

Station Location Temp. Windchill Dew Point Humidity Wind Precip. Elev Updated Type
                   

Watches & Warnings

There are currently no watches in effect.